sensor_id;sensor_type;location;lat;lon;timestamp;pressure;altitude;pressure_sealevel;temperature;humidity
7754;BME280;3921;42.266;23.122;2023-05-12T00:00:29;95875.09;;;12.25;74.95
7754;BME280;3921;42.266;23.122;2023-05-12T00:02:56;95881.81;;;12.28;76.07
7754;BME280;3921;42.266;23.122;2023-05-12T00:05:24;95622.50;;;10.83;75.85
7754;BME280;3921;42.266;23.122;2023-05-12T00:07:51;95839.03;;;12.18;75.81
7754;BME280;3921;42.266;23.122;2023-05-12T00:10:18;95777.19;;;11.67;75.26
7754;BME280;3921;42.266;23.122;2023-05-12T00:12:46;95861.63;;;12.31;75.69
7754;BME280;3921;42.266;23.122;2023-05-12T00:15:13;95757.94;;;11.61;75.39
7754;BME280;3921;42.266;23.122;2023-05-12T00:17:40;95766.34;;;11.60;75.92
7754;BME280;3921;42.266;23.122;2023-05-12T00:20:07;95863.38;;;12.18;75.48
7754;BME280;3921;42.266;23.122;2023-05-12T00:22:36;95883.56;;;12.16;75.23
7754;BME280;3921;42.266;23.122;2023-05-12T00:25:03;95780.59;;;11.58;75.88
7754;BME280;3921;42.266;23.122;2023-05-12T00:27:31;95682.84;;;10.85;75.45
7754;BME280;3921;42.266;23.122;2023-05-12T00:30:00;95875.22;;;12.04;76.32
7754;BME280;3921;42.266;23.122;2023-05-12T00:32:28;95436.34;;;9.44;75.55
7754;BME280;3921;42.266;23.122;2023-05-12T00:34:56;95620.94;;;10.62;75.84
7754;BME280;3921;42.266;23.122;2023-05-12T00:37:24;95755.56;;;11.29;76.29
7754;BME280;3921;42.266;23.122;2023-05-12T00:39:52;95799.97;;;11.44;76.07
7754;BME280;3921;42.266;23.122;2023-05-12T00:42:19;95712.09;;;11.00;76.14
7754;BME280;3921;42.266;23.122;2023-05-12T00:44:46;95863.56;;;11.86;76.36
7754;BME280;3921;42.266;23.122;2023-05-12T00:47:13;95660.31;;;10.57;75.56
7754;BME280;3921;42.266;23.122;2023-05-12T00:49:40;95809.94;;;11.58;75.60
7754;BME280;3921;42.266;23.122;2023-05-12T00:52:07;95876.97;;;11.91;75.95
7754;BME280;3921;42.266;23.122;2023-05-12T00:54:35;95560.84;;;9.80;75.67
7754;BME280;3921;42.266;23.122;2023-05-12T00:57:05;95860.19;;;11.79;75.80
7754;BME280;3921;42.266;23.122;2023-05-12T00:59:32;95771.56;;;11.19;75.77
7754;BME280;3921;42.266;23.122;2023-05-12T01:02:00;95668.72;;;10.36;76.30
7754;BME280;3921;42.266;23.122;2023-05-12T01:04:27;95828.50;;;11.35;75.68
7754;BME280;3921;42.266;23.122;2023-05-12T01:06:58;95802.59;;;11.15;75.54
7754;BME280;3921;42.266;23.122;2023-05-12T01:09:25;95825.16;;;11.36;75.86
7754;BME280;3921;42.266;23.122;2023-05-12T01:11:52;95541.63;;;9.68;75.56
7754;BME280;3921;42.266;23.122;2023-05-12T01:14:20;95708.06;;;10.56;75.60
7754;BME280;3921;42.266;23.122;2023-05-12T01:16:50;95571.75;;;9.73;75.70
7754;BME280;3921;42.266;23.122;2023-05-12T01:19:31;95874.59;;;11.53;75.83
7754;BME280;3921;42.266;23.122;2023-05-12T01:22:00;95769.97;;;10.87;76.12
7754;BME280;3921;42.266;23.122;2023-05-12T01:24:31;95784.19;;;11.02;75.57
7754;BME280;3921;42.266;23.122;2023-05-12T01:27:01;95806.78;;;11.10;76.29
7754;BME280;3921;42.266;23.122;2023-05-12T01:29:29;95575.94;;;9.49;76.09
7754;BME280;3921;42.266;23.122;2023-05-12T01:31:58;95837.75;;;11.26;75.47
7754;BME280;3921;42.266;23.122;2023-05-12T01:34:25;95870.38;;;11.55;75.82
7754;BME280;3921;42.266;23.122;2023-05-12T01:36:52;95614.38;;;9.94;76.28
7754;BME280;3921;42.266;23.122;2023-05-12T01:39:18;95597.69;;;9.75;76.26
7754;BME280;3921;42.266;23.122;2023-05-12T01:41:51;95874.59;;;11.53;76.39
7754;BME280;3921;42.266;23.122;2023-05-12T01:44:20;95710.56;;;10.59;75.20
7754;BME280;3921;42.266;23.122;2023-05-12T01:46:47;95847.81;;;11.27;75.45
7754;BME280;3921;42.266;23.122;2023-05-12T01:49:14;95708.91;;;10.43;75.98
7754;BME280;3921;42.266;23.122;2023-05-12T01:51:41;95716.41;;;10.64;76.25
7754;BME280;3921;42.266;23.122;2023-05-12T01:54:08;95703.88;;;10.52;76.19
7754;BME280;3921;42.266;23.122;2023-05-12T01:56:35;95803.44;;;11.00;75.88
7754;BME280;3921;42.266;23.122;2023-05-12T01:59:02;95780.84;;;10.93;76.19
7754;BME280;3921;42.266;23.122;2023-05-12T02:01:30;95826.84;;;11.28;76.43
7754;BME280;3921;42.266;23.122;2023-05-12T02:03:57;95848.59;;;11.46;75.93
7754;BME280;3921;42.266;23.122;2023-05-12T02:06:24;95669.56;;;10.35;76.03
7754;BME280;3921;42.266;23.122;2023-05-12T02:08:51;95801.72;;;11.21;75.82
7754;BME280;3921;42.266;23.122;2023-05-12T02:11:18;95393.00;;;8.73;75.73
7754;BME280;3921;42.266;23.122;2023-05-12T02:13:45;95645.31;;;10.28;75.21
7754;BME280;3921;42.266;23.122;2023-05-12T02:16:12;95328.66;;;8.14;75.75
7754;BME280;3921;42.266;23.122;2023-05-12T02:18:43;95849.47;;;11.42;75.88
7754;BME280;3921;42.266;23.122;2023-05-12T02:21:10;95399.69;;;8.57;75.25
7754;BME280;3921;42.266;23.122;2023-05-12T02:23:37;95713.94;;;10.52;75.81
7754;BME280;3921;42.266;23.122;2023-05-12T02:26:04;95838.59;;;11.28;75.46
7754;BME280;3921;42.266;23.122;2023-05-12T02:28:30;95769.13;;;10.82;75.04
7754;BME280;3921;42.266;23.122;2023-05-12T02:30:58;95811.78;;;11.16;74.69
7754;BME280;3921;42.266;23.122;2023-05-12T02:33:25;95811.81;;;11.10;75.14
7754;BME280;3921;42.266;23.122;2023-05-12T02:35:53;95879.59;;;11.51;74.84
7754;BME280;3921;42.266;23.122;2023-05-12T02:38:20;95856.09;;;11.52;74.32
7754;BME280;3921;42.266;23.122;2023-05-12T02:40:48;95850.28;;;11.41;75.17
7754;BME280;3921;42.266;23.122;2023-05-12T02:43:14;95656.19;;;10.26;75.33
7754;BME280;3921;42.266;23.122;2023-05-12T02:45:41;95694.66;;;10.54;75.47
7754;BME280;3921;42.266;23.122;2023-05-12T02:48:08;95692.16;;;10.57;75.17
7754;BME280;3921;42.266;23.122;2023-05-12T02:50:35;95770.81;;;10.96;74.86
7754;BME280;3921;42.266;23.122;2023-05-12T02:53:04;95755.72;;;10.86;74.52
7754;BME280;3921;42.266;23.122;2023-05-12T02:55:31;95723.09;;;10.73;74.86
7754;BME280;3921;42.266;23.122;2023-05-12T02:57:58;95774.97;;;10.94;74.85
7754;BME280;3921;42.266;23.122;2023-05-12T03:00:25;95770.81;;;10.80;74.18
7754;BME280;3921;42.266;23.122;2023-05-12T03:02:52;95888.88;;;11.43;74.33
7754;BME280;3921;42.266;23.122;2023-05-12T03:05:19;95790.03;;;10.95;73.79
7754;BME280;3921;42.266;23.122;2023-05-12T03:07:47;95852.81;;;11.35;74.04
7754;BME280;3921;42.266;23.122;2023-05-12T03:10:16;95411.34;;;8.60;73.92
7754;BME280;3921;42.266;23.122;2023-05-12T03:12:43;95571.75;;;9.62;73.72
7754;BME280;3921;42.266;23.122;2023-05-12T03:15:10;95468.16;;;8.81;73.47
7754;BME280;3921;42.266;23.122;2023-05-12T03:17:37;95875.47;;;11.42;74.02
7754;BME280;3921;42.266;23.122;2023-05-12T03:20:05;95759.09;;;10.76;73.91
7754;BME280;3921;42.266;23.122;2023-05-12T03:22:32;95775.84;;;10.80;73.78
7754;BME280;3921;42.266;23.122;2023-05-12T03:25:00;95881.31;;;11.43;73.73
7754;BME280;3921;42.266;23.122;2023-05-12T03:27:30;95406.34;;;8.58;73.80
7754;BME280;3921;42.266;23.122;2023-05-12T03:29:58;95852.88;;;11.21;73.86
7754;BME280;3921;42.266;23.122;2023-05-12T03:32:26;95824.41;;;11.01;74.39
7754;BME280;3921;42.266;23.122;2023-05-12T03:34:53;95769.13;;;10.82;73.74
7754;BME280;3921;42.266;23.122;2023-05-12T03:37:20;95878.00;;;11.36;73.75
7754;BME280;3921;42.266;23.122;2023-05-12T03:39:47;95778.38;;;10.76;74.70
7754;BME280;3921;42.266;23.122;2023-05-12T03:42:14;95583.47;;;9.45;75.07
7754;BME280;3921;42.266;23.122;2023-05-12T03:44:43;95747.38;;;10.71;74.72
7754;BME280;3921;42.266;23.122;2023-05-12T03:47:09;95819.41;;;10.85;74.34
7754;BME280;3921;42.266;23.122;2023-05-12T03:49:36;95775.00;;;10.83;74.32
7754;BME280;3921;42.266;23.122;2023-05-12T03:52:04;95899.75;;;11.53;74.24
7754;BME280;3921;42.266;23.122;2023-05-12T03:54:31;95886.34;;;11.49;73.59
7754;BME280;3921;42.266;23.122;2023-05-12T03:56:58;95712.25;;;10.52;73.62
7754;BME280;3921;42.266;23.122;2023-05-12T03:59:24;95837.75;;;11.27;74.67
7754;BME280;3921;42.266;23.122;2023-05-12T04:01:53;95884.66;;;11.53;74.29
7754;BME280;3921;42.266;23.122;2023-05-12T04:04:20;95841.13;;;11.23;73.66
7754;BME280;3921;42.266;23.122;2023-05-12T04:06:46;95831.88;;;11.24;73.71
7754;BME280;3921;42.266;23.122;2023-05-12T04:09:19;95840.25;;;11.32;73.19
7754;BME280;3921;42.266;23.122;2023-05-12T04:11:46;95878.75;;;11.55;73.35
7754;BME280;3921;42.266;23.122;2023-05-12T04:14:13;95718.13;;;10.56;73.80
7754;BME280;3921;42.266;23.122;2023-05-12T04:16:40;95677.97;;;10.24;73.60
7754;BME280;3921;42.266;23.122;2023-05-12T04:19:08;95787.56;;;10.87;73.73
7754;BME280;3921;42.266;23.122;2023-05-12T04:21:35;95716.47;;;10.35;73.69
7754;BME280;3921;42.266;23.122;2023-05-12T04:24:02;95913.16;;;11.56;74.04
7754;BME280;3921;42.266;23.122;2023-05-12T04:26:29;95840.28;;;11.24;73.59
7754;BME280;3921;42.266;23.122;2023-05-12T04:28:56;95435.59;;;8.67;73.77
7754;BME280;3921;42.266;23.122;2023-05-12T04:31:23;95803.50;;;10.91;73.33
7754;BME280;3921;42.266;23.122;2023-05-12T04:33:50;95433.09;;;8.77;73.29
7754;BME280;3921;42.266;23.122;2023-05-12T04:36:19;95593.50;;;9.78;72.47
7754;BME280;3921;42.266;23.122;2023-05-12T04:38:46;95500.72;;;8.99;72.14
7754;BME280;3921;42.266;23.122;2023-05-12T04:41:12;95833.59;;;11.15;72.42
7754;BME280;3921;42.266;23.122;2023-05-12T04:43:39;95853.72;;;11.19;73.06
7754;BME280;3921;42.266;23.122;2023-05-12T04:46:06;95425.53;;;8.48;72.48
7754;BME280;3921;42.266;23.122;2023-05-12T04:48:37;95564.22;;;9.35;72.14
7754;BME280;3921;42.266;23.122;2023-05-12T04:51:07;95657.91;;;9.98;73.28
7754;BME280;3921;42.266;23.122;2023-05-12T04:53:36;95793.41;;;10.89;74.28
7754;BME280;3921;42.266;23.122;2023-05-12T04:56:03;95804.34;;;10.81;74.44
7754;BME280;3921;42.266;23.122;2023-05-12T04:58:31;95876.28;;;11.44;74.95
7754;BME280;3921;42.266;23.122;2023-05-12T05:00:57;95626.94;;;9.90;74.07
7754;BME280;3921;42.266;23.122;2023-05-12T05:03:24;95899.72;;;11.56;73.94
7754;BME280;3921;42.266;23.122;2023-05-12T05:05:52;95896.38;;;11.52;74.45
7754;BME280;3921;42.266;23.122;2023-05-12T05:08:33;95772.53;;;10.69;73.19
7754;BME280;3921;42.266;23.122;2023-05-12T05:11:01;95424.72;;;8.60;73.50
7754;BME280;3921;42.266;23.122;2023-05-12T05:13:28;95896.41;;;11.48;74.02
7754;BME280;3921;42.266;23.122;2023-05-12T05:15:56;95628.63;;;9.75;73.72
7754;BME280;3921;42.266;23.122;2023-05-12T05:18:23;95734.03;;;10.46;74.26
7754;BME280;3921;42.266;23.122;2023-05-12T05:20:50;95412.19;;;8.51;73.64
7754;BME280;3921;42.266;23.122;2023-05-12T05:23:17;95372.09;;;8.27;74.51
7754;BME280;3921;42.266;23.122;2023-05-12T05:25:44;95325.28;;;7.80;74.75
7754;BME280;3921;42.266;23.122;2023-05-12T05:28:12;95942.53;;;11.50;74.83
7754;BME280;3921;42.266;23.122;2023-05-12T05:30:39;95820.25;;;10.92;74.97
7754;BME280;3921;42.266;23.122;2023-05-12T05:33:06;95945.03;;;11.51;74.91
7754;BME280;3921;42.266;23.122;2023-05-12T05:35:33;95391.28;;;8.32;74.79
7754;BME280;3921;42.266;23.122;2023-05-12T05:38:00;95636.13;;;9.84;74.87
7754;BME280;3921;42.266;23.122;2023-05-12T05:40:27;95801.81;;;10.90;74.74
7754;BME280;3921;42.266;23.122;2023-05-12T05:42:54;95924.91;;;11.59;74.74
7754;BME280;3921;42.266;23.122;2023-05-12T05:45:22;95819.38;;;10.95;73.07
7754;BME280;3921;42.266;23.122;2023-05-12T05:47:49;95838.66;;;11.05;73.53
7754;BME280;3921;42.266;23.122;2023-05-12T05:50:17;95844.50;;;11.11;73.64
7754;BME280;3921;42.266;23.122;2023-05-12T05:52:44;95585.97;;;9.34;74.27
7754;BME280;3921;42.266;23.122;2023-05-12T05:55:11;95621.91;;;9.68;75.09
7754;BME280;3921;42.266;23.122;2023-05-12T05:57:38;95815.22;;;10.87;74.85
7754;BME280;3921;42.266;23.122;2023-05-12T06:00:06;95754.97;;;10.52;75.20
7754;BME280;3921;42.266;23.122;2023-05-12T06:02:35;95818.56;;;10.93;74.63
7754;BME280;3921;42.266;23.122;2023-05-12T06:05:02;95850.34;;;11.12;73.55
7754;BME280;3921;42.266;23.122;2023-05-12T06:07:29;95881.34;;;11.41;73.67
7754;BME280;3921;42.266;23.122;2023-05-12T06:09:56;95739.03;;;10.59;73.38
7754;BME280;3921;42.266;23.122;2023-05-12T06:12:23;95823.56;;;11.09;72.65
7754;BME280;3921;42.266;23.122;2023-05-12T06:14:50;95631.13;;;9.84;72.15
7754;BME280;3921;42.266;23.122;2023-05-12T06:17:17;95864.56;;;11.34;73.26
7754;BME280;3921;42.266;23.122;2023-05-12T06:19:45;95590.16;;;9.67;74.18
7754;BME280;3921;42.266;23.122;2023-05-12T06:22:14;95623.59;;;9.81;74.19
7754;BME280;3921;42.266;23.122;2023-05-12T06:24:41;95836.09;;;11.17;73.84
7754;BME280;3921;42.266;23.122;2023-05-12T06:27:08;95850.31;;;11.35;72.95
7754;BME280;3921;42.266;23.122;2023-05-12T06:29:35;95504.91;;;9.15;71.98
7754;BME280;3921;42.266;23.122;2023-05-12T06:32:02;95908.91;;;11.72;71.96
7754;BME280;3921;42.266;23.122;2023-05-12T06:34:29;95954.22;;;11.83;73.32
7754;BME280;3921;42.266;23.122;2023-05-12T06:36:57;95788.41;;;10.88;74.25
7754;BME280;3921;42.266;23.122;2023-05-12T06:39:24;95465.66;;;8.96;73.73
7754;BME280;3921;42.266;23.122;2023-05-12T06:41:51;95800.13;;;11.01;73.21
7754;BME280;3921;42.266;23.122;2023-05-12T06:44:17;95744.06;;;10.62;73.06
7754;BME280;3921;42.266;23.122;2023-05-12T06:46:44;95948.28;;;11.96;73.74
7754;BME280;3921;42.266;23.122;2023-05-12T06:49:11;95941.56;;;12.00;73.75
7754;BME280;3921;42.266;23.122;2023-05-12T06:51:38;95859.53;;;11.36;74.03
7754;BME280;3921;42.266;23.122;2023-05-12T06:54:07;95897.19;;;11.65;74.12
7754;BME280;3921;42.266;23.122;2023-05-12T06:56:33;95475.66;;;9.20;74.12
7754;BME280;3921;42.266;23.122;2023-05-12T06:59:00;95830.16;;;11.47;73.71
7754;BME280;3921;42.266;23.122;2023-05-12T07:01:29;95924.72;;;12.11;73.39
7754;BME280;3921;42.266;23.122;2023-05-12T07:03:56;95866.09;;;11.74;72.36
7754;BME280;3921;42.266;23.122;2023-05-12T07:06:23;95926.41;;;12.09;72.72
7754;BME280;3921;42.266;23.122;2023-05-12T07:08:52;95927.25;;;12.06;71.73
7754;BME280;3921;42.266;23.122;2023-05-12T07:11:20;95924.72;;;12.12;71.24
7754;BME280;3921;42.266;23.122;2023-05-12T07:13:48;95834.31;;;11.47;71.81
7754;BME280;3921;42.266;23.122;2023-05-12T07:16:16;95574.22;;;9.97;71.99
7754;BME280;3921;42.266;23.122;2023-05-12T07:18:43;95773.22;;;11.17;72.90
7754;BME280;3921;42.266;23.122;2023-05-12T07:21:15;95867.75;;;11.87;72.34
7754;BME280;3921;42.266;23.122;2023-05-12T07:23:53;95772.34;;;11.30;71.83
7754;BME280;3921;42.266;23.122;2023-05-12T07:26:21;95834.25;;;11.71;72.62
7754;BME280;3921;42.266;23.122;2023-05-12T07:28:49;95420.53;;;9.19;72.17
7754;BME280;3921;42.266;23.122;2023-05-12T07:31:16;95768.97;;;11.34;72.33
7754;BME280;3921;42.266;23.122;2023-05-12T07:33:43;95765.59;;;11.35;72.63
7754;BME280;3921;42.266;23.122;2023-05-12T07:36:10;95844.25;;;11.86;71.98
7754;BME280;3921;42.266;23.122;2023-05-12T07:38:36;95748.91;;;11.21;72.37
7754;BME280;3921;42.266;23.122;2023-05-12T07:41:03;95832.50;;;11.79;72.11
7754;BME280;3921;42.266;23.122;2023-05-12T07:43:32;95820.81;;;11.72;72.75
7754;BME280;3921;42.266;23.122;2023-05-12T07:45:59;95829.19;;;11.83;72.48
7754;BME280;3921;42.266;23.122;2023-05-12T07:48:26;95806.56;;;11.63;72.26
7754;BME280;3921;42.266;23.122;2023-05-12T07:50:54;95611.75;;;10.54;73.19
7754;BME280;3921;42.266;23.122;2023-05-12T07:53:24;95764.66;;;11.58;72.26
7754;BME280;3921;42.266;23.122;2023-05-12T07:55:51;95762.97;;;11.57;72.17
7754;BME280;3921;42.266;23.122;2023-05-12T07:58:18;95752.97;;;11.49;72.41
7754;BME280;3921;42.266;23.122;2023-05-12T08:00:46;95928.63;;;12.59;73.04
7754;BME280;3921;42.266;23.122;2023-05-12T08:03:13;95915.13;;;12.66;72.14
7754;BME280;3921;42.266;23.122;2023-05-12T08:05:41;95747.88;;;11.64;72.62
7754;BME280;3921;42.266;23.122;2023-05-12T08:08:08;95567.41;;;10.42;72.00
7754;BME280;3921;42.266;23.122;2023-05-12T08:10:40;95665.84;;;11.28;71.78
7754;BME280;3921;42.266;23.122;2023-05-12T08:13:07;95813.03;;;12.16;72.17
7754;BME280;3921;42.266;23.122;2023-05-12T08:15:34;95922.59;;;12.85;72.13
7754;BME280;3921;42.266;23.122;2023-05-12T08:18:03;95781.25;;;11.99;72.12
7754;BME280;3921;42.266;23.122;2023-05-12T08:20:30;95711.75;;;11.70;72.49
7754;BME280;3921;42.266;23.122;2023-05-12T08:22:57;95815.38;;;12.39;71.38
7754;BME280;3921;42.266;23.122;2023-05-12T08:25:25;95813.69;;;12.41;71.59
7754;BME280;3921;42.266;23.122;2023-05-12T08:27:54;95915.66;;;13.10;71.68
7754;BME280;3921;42.266;23.122;2023-05-12T08:30:21;95676.53;;;11.62;71.38
7754;BME280;3921;42.266;23.122;2023-05-12T08:32:48;95766.78;;;12.23;70.63
7754;BME280;3921;42.266;23.122;2023-05-12T08:35:17;95687.31;;;11.87;70.97
7754;BME280;3921;42.266;23.122;2023-05-12T08:37:44;95814.41;;;12.57;70.93
7754;BME280;3921;42.266;23.122;2023-05-12T08:40:14;95859.38;;;13.01;71.76
7754;BME280;3921;42.266;23.122;2023-05-12T08:42:43;95452.63;;;10.58;70.31
7754;BME280;3921;42.266;23.122;2023-05-12T08:45:12;95474.25;;;10.80;70.48
7754;BME280;3921;42.266;23.122;2023-05-12T08:47:40;95741.44;;;12.42;69.58
7754;BME280;3921;42.266;23.122;2023-05-12T08:50:09;95850.91;;;13.07;70.30
7754;BME280;3921;42.266;23.122;2023-05-12T08:52:39;95868.47;;;13.18;70.96
7754;BME280;3921;42.266;23.122;2023-05-12T08:55:08;95834.91;;;13.10;70.73
7754;BME280;3921;42.266;23.122;2023-05-12T08:57:35;95764.66;;;12.71;70.12
7754;BME280;3921;42.266;23.122;2023-05-12T09:00:03;95734.63;;;12.48;70.42
7754;BME280;3921;42.266;23.122;2023-05-12T09:02:30;95402.28;;;10.69;70.69
7754;BME280;3921;42.266;23.122;2023-05-12T09:04:57;95691.00;;;12.46;70.58
7754;BME280;3921;42.266;23.122;2023-05-12T09:07:25;95820.44;;;13.28;70.08
7754;BME280;3921;42.266;23.122;2023-05-12T09:09:57;95827.94;;;13.36;70.29
7754;BME280;3921;42.266;23.122;2023-05-12T09:12:30;95910.59;;;13.93;69.34
7754;BME280;3921;42.266;23.122;2023-05-12T09:15:02;95916.38;;;14.02;67.95
7754;BME280;3921;42.266;23.122;2023-05-12T09:17:30;95842.75;;;13.64;68.11
7754;BME280;3921;42.266;23.122;2023-05-12T09:19:57;95914.66;;;14.04;69.13
7754;BME280;3921;42.266;23.122;2023-05-12T09:22:27;95627.28;;;12.34;68.06
7754;BME280;3921;42.266;23.122;2023-05-12T09:24:56;95821.78;;;13.57;68.26
7754;BME280;3921;42.266;23.122;2023-05-12T09:27:23;95603.00;;;12.25;68.62
7754;BME280;3921;42.266;23.122;2023-05-12T09:29:51;95914.53;;;14.14;68.58
7754;BME280;3921;42.266;23.122;2023-05-12T09:32:29;95542.03;;;11.95;68.09
7754;BME280;3921;42.266;23.122;2023-05-12T09:34:56;95816.69;;;13.62;68.46
7754;BME280;3921;42.266;23.122;2023-05-12T09:37:29;95870.81;;;14.08;67.11
7754;BME280;3921;42.266;23.122;2023-05-12T09:40:02;95906.78;;;14.29;67.63
7754;BME280;3921;42.266;23.122;2023-05-12T09:42:31;95906.16;;;14.12;67.02
7754;BME280;3921;42.266;23.122;2023-05-12T09:44:59;95814.97;;;13.65;66.30
7754;BME280;3921;42.266;23.122;2023-05-12T09:47:33;95817.41;;;13.71;67.37
7754;BME280;3921;42.266;23.122;2023-05-12T09:50:00;95916.84;;;14.30;67.85
7754;BME280;3921;42.266;23.122;2023-05-12T09:52:28;95550.44;;;11.94;68.07
7754;BME280;3921;42.266;23.122;2023-05-12T09:55:05;95920.22;;;14.31;68.10
7754;BME280;3921;42.266;23.122;2023-05-12T09:57:35;95910.00;;;14.37;67.53
7754;BME280;3921;42.266;23.122;2023-05-12T10:00:06;95882.47;;;14.19;67.95
7754;BME280;3921;42.266;23.122;2023-05-12T10:02:34;95832.56;;;13.73;67.25
7754;BME280;3921;42.266;23.122;2023-05-12T10:05:05;95639.56;;;12.61;67.33
7754;BME280;3921;42.266;23.122;2023-05-12T10:07:33;95813.19;;;13.73;67.61
7754;BME280;3921;42.266;23.122;2023-05-12T10:10:04;95834.78;;;13.93;67.35
7754;BME280;3921;42.266;23.122;2023-05-12T10:12:32;95904.00;;;14.44;67.22
7754;BME280;3921;42.266;23.122;2023-05-12T10:15:01;95846.34;;;14.12;67.07
7754;BME280;3921;42.266;23.122;2023-05-12T10:17:29;95819.53;;;14.02;67.03
7754;BME280;3921;42.266;23.122;2023-05-12T10:19:57;95818.69;;;14.01;66.46
7754;BME280;3921;42.266;23.122;2023-05-12T10:22:25;95824.53;;;14.06;66.92
7754;BME280;3921;42.266;23.122;2023-05-12T10:24:54;95823.56;;;14.14;66.64
7754;BME280;3921;42.266;23.122;2023-05-12T10:27:24;95822.81;;;14.08;67.00
7754;BME280;3921;42.266;23.122;2023-05-12T10:29:52;95768.66;;;13.65;66.22
7754;BME280;3921;42.266;23.122;2023-05-12T10:32:19;95892.22;;;14.43;65.87
7754;BME280;3921;42.266;23.122;2023-05-12T10:34:46;95751.91;;;13.61;65.75
7754;BME280;3921;42.266;23.122;2023-05-12T10:37:13;95801.97;;;13.93;65.49
7754;BME280;3921;42.266;23.122;2023-05-12T10:39:46;95892.97;;;14.53;65.60
7754;BME280;3921;42.266;23.122;2023-05-12T10:42:16;95833.78;;;14.06;66.01
7754;BME280;3921;42.266;23.122;2023-05-12T10:44:51;95868.13;;;14.22;66.01
7754;BME280;3921;42.266;23.122;2023-05-12T10:47:22;95799.59;;;13.82;66.06
7754;BME280;3921;42.266;23.122;2023-05-12T10:49:54;95911.47;;;14.55;65.38
7754;BME280;3921;42.266;23.122;2023-05-12T10:52:22;95619.19;;;12.81;65.49
7754;BME280;3921;42.266;23.122;2023-05-12T10:54:49;95897.22;;;14.51;66.10
7754;BME280;3921;42.266;23.122;2023-05-12T10:57:25;95737.03;;;13.39;66.35
7754;BME280;3921;42.266;23.122;2023-05-12T10:59:57;95908.28;;;14.41;67.47
7754;BME280;3921;42.266;23.122;2023-05-12T11:02:27;95904.00;;;14.47;66.92
7754;BME280;3921;42.266;23.122;2023-05-12T11:04:57;95780.28;;;13.78;65.90
7754;BME280;3921;42.266;23.122;2023-05-12T11:07:25;95536.03;;;12.10;66.48
7754;BME280;3921;42.266;23.122;2023-05-12T11:09:53;95833.81;;;14.03;65.88
7754;BME280;3921;42.266;23.122;2023-05-12T11:12:21;95635.34;;;12.65;65.39
7754;BME280;3921;42.266;23.122;2023-05-12T11:14:48;95822.91;;;14.01;65.54
7754;BME280;3921;42.266;23.122;2023-05-12T11:17:16;95718.66;;;13.28;65.60
7754;BME280;3921;42.266;23.122;2023-05-12T11:19:48;95438.34;;;11.60;65.32
7754;BME280;3921;42.266;23.122;2023-05-12T11:22:16;95549.97;;;12.37;65.23
7754;BME280;3921;42.266;23.122;2023-05-12T11:24:44;95674.22;;;13.16;65.54
7754;BME280;3921;42.266;23.122;2023-05-12T11:27:12;95620.91;;;12.79;65.83
7754;BME280;3921;42.266;23.122;2023-05-12T11:29:41;95907.34;;;14.49;66.75
7754;BME280;3921;42.266;23.122;2023-05-12T11:32:08;95882.13;;;14.43;65.78
7754;BME280;3921;42.266;23.122;2023-05-12T11:34:37;95838.72;;;14.15;65.90
7754;BME280;3921;42.266;23.122;2023-05-12T11:37:04;95814.63;;;13.91;66.20
7754;BME280;3921;42.266;23.122;2023-05-12T11:39:34;95891.47;;;14.40;65.81
7754;BME280;3921;42.266;23.122;2023-05-12T11:42:03;95828.16;;;13.86;65.22
7754;BME280;3921;42.266;23.122;2023-05-12T11:44:30;95844.78;;;14.02;65.23
7754;BME280;3921;42.266;23.122;2023-05-12T11:46:59;95695.28;;;13.14;65.50
7754;BME280;3921;42.266;23.122;2023-05-12T11:49:27;95464.38;;;11.56;65.50
7754;BME280;3921;42.266;23.122;2023-05-12T11:51:57;95707.00;;;13.19;65.14
7754;BME280;3921;42.266;23.122;2023-05-12T11:54:27;95863.38;;;13.99;64.81
7754;BME280;3921;42.266;23.122;2023-05-12T11:56:54;95844.00;;;14.00;64.93
7754;BME280;3921;42.266;23.122;2023-05-12T11:59:26;95918.34;;;14.44;65.60
7754;BME280;3921;42.266;23.122;2023-05-12T12:01:54;95815.59;;;13.81;64.94
7754;BME280;3921;42.266;23.122;2023-05-12T12:04:31;95652.31;;;12.51;65.38
7754;BME280;3921;42.266;23.122;2023-05-12T12:07:00;95774.06;;;13.39;65.54
7754;BME280;3921;42.266;23.122;2023-05-12T12:09:33;95926.88;;;14.37;65.55
7754;BME280;3921;42.266;23.122;2023-05-12T12:12:01;95845.72;;;13.93;65.24
7754;BME280;3921;42.266;23.122;2023-05-12T12:14:30;95771.47;;;13.42;65.37
7754;BME280;3921;42.266;23.122;2023-05-12T12:16:57;95840.66;;;13.96;64.95
7754;BME280;3921;42.266;23.122;2023-05-12T12:19:24;95784.03;;;13.49;65.45
7754;BME280;3921;42.266;23.122;2023-05-12T12:21:52;95864.22;;;13.97;65.93
7754;BME280;3921;42.266;23.122;2023-05-12T12:24:20;95847.59;;;13.80;65.96
7754;BME280;3921;42.266;23.122;2023-05-12T12:26:47;95679.84;;;12.69;65.32
7754;BME280;3921;42.266;23.122;2023-05-12T12:29:14;95792.56;;;13.39;65.68
7754;BME280;3921;42.266;23.122;2023-05-12T12:31:42;95833.53;;;13.61;65.41
7754;BME280;3921;42.266;23.122;2023-05-12T12:34:09;95872.69;;;13.94;65.47
7754;BME280;3921;42.266;23.122;2023-05-12T12:36:36;95908.53;;;14.21;65.50
7754;BME280;3921;42.266;23.122;2023-05-12T12:39:03;95805.72;;;13.66;64.89
7754;BME280;3921;42.266;23.122;2023-05-12T12:41:31;95882.63;;;14.06;65.97
7754;BME280;3921;42.266;23.122;2023-05-12T12:43:58;95869.28;;;13.97;65.82
7754;BME280;3921;42.266;23.122;2023-05-12T12:46:25;95455.25;;;11.47;65.54
7754;BME280;3921;42.266;23.122;2023-05-12T12:48:52;95886.78;;;14.12;66.06
7754;BME280;3921;42.266;23.122;2023-05-12T12:51:19;95670.47;;;12.77;65.40
7754;BME280;3921;42.266;23.122;2023-05-12T12:53:45;95901.97;;;14.09;65.94
7754;BME280;3921;42.266;23.122;2023-05-12T12:56:12;95618.00;;;12.37;65.88
7754;BME280;3921;42.266;23.122;2023-05-12T12:58:41;95566.94;;;12.23;65.91
7754;BME280;3921;42.266;23.122;2023-05-12T13:01:08;95762.25;;;13.42;65.99
7754;BME280;3921;42.266;23.122;2023-05-12T13:03:34;95794.78;;;13.64;65.96
7754;BME280;3921;42.266;23.122;2023-05-12T13:06:01;95802.19;;;13.76;65.81
7754;BME280;3921;42.266;23.122;2023-05-12T13:08:28;95781.06;;;13.81;65.37
7754;BME280;3921;42.266;23.122;2023-05-12T13:10:55;95875.34;;;14.48;65.13
7754;BME280;3921;42.266;23.122;2023-05-12T13:13:22;95870.91;;;14.61;64.30
7754;BME280;3921;42.266;23.122;2023-05-12T13:15:51;95872.41;;;14.73;63.62